• Join FlightAware (Why Join?)
  • Login
  • US Flag 
08:35PM EDT


 

Airport Tracker/Info


-or-


 

Live Flight TrackerFlight Track Log ✈ PAG216 ✈ 12-Jul-2013 ✈ CZTM - CYWG

Flight Track Log - Related Links

Times and Time Zones

All times are in EDT time to prevent confusion due to time zone crossing. See the PAG216 flight status page for this flight to view local times or setup timezone preferences in your user account.

Time Position Orientation Groundspeed Altitude Reporting Facility
EDT Latitude Longitude Course Direction KTS MPH feet Rate Location/Type
03:01PM 55.4167 -92.4833 217° Southwest 210 242 15,300  Level Winnipeg Center
03:02PM 55.3667 -92.5500 217° Southwest 200 230 16,100 900 Climbing Winnipeg Center
03:03PM 55.3333 -92.5833 210° Southwest 190 219 17,100 1,080 Climbing Winnipeg Center
03:04PM 55.2833 -92.6167 201° Southwest 190 219 18,300 900 Climbing Winnipeg Center
03:05PM 55.2500 -92.6667 221° Southwest 200 230 18,900 600 Climbing Winnipeg Center
03:06PM 55.2000 -92.7167 210° Southwest 190 219 19,500 420 Climbing Winnipeg Center
03:07PM 55.1500 -92.7667 210° Southwest 210 242 19,800 180 Climbing Winnipeg Center
03:08PM 55.0833 -92.8333 210° Southwest 200 230 19,900 60 Climbing Winnipeg Center
03:09PM 55.0333 -92.8667 201° Southwest 220 253 20,000  Climbing Winnipeg Center
03:10PM 54.9833 -92.9333 217° Southwest 220 253 20,000  Level Winnipeg Center
03:11PM 54.9333 -92.9667 201° Southwest 230 265 20,000  Level Winnipeg Center
03:12PM 54.8667 -93.0333 210° Southwest 220 253 20,000 -60 Level Winnipeg Center
03:13PM 54.8167 -93.1000 218° Southwest 230 265 19,900  Descending Winnipeg Center
03:14PM 54.7500 -93.1667 210° Southwest 220 253 20,000  Climbing Winnipeg Center
03:15PM 54.7167 -93.2167 221° Southwest 230 265 20,000  Level Winnipeg Center
03:16PM 54.6833 -93.2833 229° Southwest 220 253 20,000  Level Winnipeg Center
03:17PM 54.6333 -93.3833 229° Southwest 220 253 20,100  Climbing Winnipeg Center
03:18PM 54.5667 -93.4333 204° Southwest 230 265 20,000 -120 Descending Winnipeg Center
03:19PM 54.5167 -93.5000 218° Southwest 240 276 19,900 -60 Descending Winnipeg Center
03:20PM 54.4667 -93.5667 218° Southwest 220 253 19,900  Level Winnipeg Center
03:21PM 54.4167 -93.6167 210° Southwest 230 265 19,900 -60 Level Winnipeg Center
03:22PM 54.3833 -93.6833 229° Southwest 220 253 19,800 480 Descending Winnipeg Center
03:23PM 54.3333 -93.7500 218° Southwest 220 253 20,900 720 Climbing Winnipeg Center
03:24PM 54.2833 -93.8000 210° Southwest 180 207 21,300 540 Climbing Winnipeg Center
03:25PM 54.2500 -93.8667 229° Southwest 150 173 22,000 300 Climbing Winnipeg Center
03:26PM 54.2500 -93.9333 270° West 150 173 22,000  Level Winnipeg Center
03:27PM 54.2333 -93.9833 240° Southwest 160 184 22,000  Level Winnipeg Center
03:28PM 54.2000 -94.0500 229° Southwest 160 184 22,000  Level Winnipeg Center
03:29PM 54.1833 -94.1333 251° West 160 184 22,100  Climbing Winnipeg Center
03:30PM 54.1500 -94.1833 221° Southwest 170 196 22,100  Level Winnipeg Center
03:31PM 54.1167 -94.2500 230° Southwest 180 207 22,100 -60 Level Winnipeg Center
03:32PM 54.0833 -94.3167 230° Southwest 190 219 22,000  Descending Winnipeg Center
03:33PM 54.0500 -94.4000 236° Southwest 180 207 22,100  Climbing Winnipeg Center
03:34PM 54.0167 -94.4500 221° Southwest 190 219 22,100  Level Winnipeg Center
03:35PM 53.9833 -94.5500 240° Southwest 190 219 22,100 -60 Level Winnipeg Center
03:36PM 53.9500 -94.6000 221° Southwest 200 230 22,000 -60 Descending Winnipeg Center
03:37PM 53.9000 -94.6667 218° Southwest 200 230 22,000  Level Winnipeg Center
03:38PM 53.8667 -94.7500 236° Southwest 200 230 22,000  Level Winnipeg Center
03:39PM 53.8500 -94.8000 241° Southwest 190 219 22,100  Climbing Winnipeg Center
03:40PM 53.8167 -94.9000 241° Southwest 200 230 22,100 -60 Level Winnipeg Center
03:41PM 53.7833 -94.9500 222° Southwest 190 219 22,000 -120 Descending Winnipeg Center
03:42PM 53.7500 -95.0333 236° Southwest 200 230 21,900  Descending Winnipeg Center
03:43PM 53.7167 -95.1000 230° Southwest 200 230 22,000 60 Climbing Winnipeg Center
03:44PM 53.6667 -95.1500 211° Southwest 190 219 22,100  Climbing Winnipeg Center
03:45PM 53.6167 -95.2167 218° Southwest 200 230 22,100  Level Winnipeg Center
03:46PM 53.5667 -95.2667 211° Southwest 200 230 22,200  Climbing Winnipeg Center
03:47PM 53.5333 -95.3000 211° Southwest 200 230 22,100 -60 Descending Winnipeg Center
03:48PM 53.4833 -95.3667 218° Southwest 210 242 22,100 -120 Level Winnipeg Center
03:49PM 53.4333 -95.4167 211° Southwest 200 230 21,900 -60 Descending Winnipeg Center
03:50PM 53.3833 -95.4500 202° Southwest 210 242 22,000  Climbing Winnipeg Center
03:51PM 53.3333 -95.4833 202° Southwest 210 242 22,000  Level Winnipeg Center
03:52PM 53.2833 -95.5000 191° South 200 230 22,000  Level Winnipeg Center
03:53PM 53.2167 -95.5333 197° South 210 242 22,100  Climbing Winnipeg Center
03:54PM 53.1667 -95.5667 202° Southwest 210 242 22,100  Level Winnipeg Center
03:55PM 53.1000 -95.6000 197° South 210 242 22,100 -60 Level Winnipeg Center
03:56PM 53.0500 -95.6000 180° South 210 242 22,000 -60 Descending Winnipeg Center
03:57PM 52.9833 -95.6333 197° South 220 253 22,000  Level Winnipeg Center
03:58PM 52.9333 -95.6667 202° Southwest 210 242 22,100  Climbing Winnipeg Center
04:00PM 52.8167 -95.7167 195° South 220 253 22,000 -60 Descending Winnipeg Center
04:01PM 52.7667 -95.7500 202° Southwest 210 242 22,000  Level Winnipeg Center
04:02PM 52.7167 -95.7833 202° Southwest 200 230 22,000 -60 Level Winnipeg Center
04:03PM 52.6500 -95.8000 189° South 200 230 21,900 -60 Descending Winnipeg Center
04:04PM 52.6167 -95.8667 231° Southwest 190 219 21,900  Level Winnipeg Center
04:05PM 52.5833 -95.9167 222° Southwest 180 207 21,900  Level Winnipeg Center
04:06PM 52.5333 -95.9500 202° Southwest 180 207 22,000  Climbing Winnipeg Center
04:07PM 52.4833 -96.0000 211° Southwest 190 219 22,000  Level Winnipeg Center
04:08PM 52.4333 -96.0333 202° Southwest 190 219 22,000  Level Winnipeg Center
04:09PM 52.3833 -96.0667 202° Southwest 200 230 22,000  Level Winnipeg Center
04:10PM 52.3333 -96.0833 192° South 190 219 22,000 -60 Level Winnipeg Center
04:11PM 52.2833 -96.1167 202° Southwest 190 219 21,900 -60 Descending Winnipeg Center
04:12PM 52.2333 -96.1500 202° Southwest 180 207 21,900  Level Winnipeg Center
04:13PM 52.1833 -96.1667 192° South 180 207 22,000  Climbing Winnipeg Center
04:14PM 52.1333 -96.2000 202° Southwest 180 207 21,900 -60 Descending Winnipeg Center
04:15PM 52.0833 -96.2333 202° Southwest 190 219 21,900 -900 Level Winnipeg Center
04:16PM 52.0333 -96.2500 192° South 210 242 20,200 -1,980 Descending Winnipeg Center
04:17PM 51.9667 -96.2833 197° South 250 288 18,000 -1,920 Descending Winnipeg Center
04:18PM 51.8833 -96.3167 194° South 280 322 16,400 -960 Descending Winnipeg Center
04:19PM 51.8167 -96.3500 197° South 280 322 16,100 -240 Descending Winnipeg Center
04:20PM 51.7500 -96.3667 189° South 260 299 16,000  Descending Winnipeg Center
04:21PM 51.6833 -96.4000 197° South 250 288 16,100  Climbing Winnipeg Center
04:22PM 51.6167 -96.4333 197° South 250 288 16,100  Level Winnipeg Center
04:23PM 51.5500 -96.4500 189° South 240 276 16,100 -60 Level Winnipeg Center
04:24PM 51.4833 -96.4833 197° South 240 276 16,000  Descending Winnipeg Center
04:25PM 51.4167 -96.5167 197° South 230 265 16,100  Climbing Winnipeg Center
04:26PM 51.3667 -96.5333 192° South 220 253 16,000  Descending Winnipeg Center
04:27PM 51.3000 -96.5667 197° South 210 242 16,100  Climbing Winnipeg Center
04:28PM 51.2500 -96.5833 192° South 210 242 16,100 -60 Level Winnipeg Center
04:29PM 51.2000 -96.6167 203° Southwest 210 242 16,000  Descending Winnipeg Center
04:30PM 51.1333 -96.6500 197° South 200 230 16,100  Climbing Winnipeg Center
04:31PM 51.0833 -96.6500 180° South 200 230 16,000  Descending Winnipeg Center
04:32PM 51.0333 -96.6667 192° South 200 230 16,100 -300 Climbing Winnipeg Center
04:33PM 50.9667 -96.7000 197° South 220 253 15,500 -720 Descending Winnipeg Center
04:34PM 50.9167 -96.7333 203° Southwest 240 276 14,700 -1,080 Descending Winnipeg Center
04:35PM 50.8333 -96.7833 201° Southwest 260 299 13,400 -900 Descending Winnipeg Center
04:36PM 50.7667 -96.8000 189° South 280 322 12,900 -600 Descending Winnipeg Center
04:37PM 50.6833 -96.8667 207° Southwest 280 322 12,200 -600 Descending Winnipeg Center
04:38PM 50.6167 -96.8833 189° South 270 311 11,700 -600 Descending Winnipeg Center
04:39PM 50.5500 -96.9167 198° South 280 322 11,100 -600 Descending Winnipeg Center
04:40PM 50.4667 -96.9667 201° Southwest 270 311 10,600 -600 Descending Winnipeg Center
04:41PM 50.4000 -97.0000 198° South 270 311 9,900 -840 Descending Winnipeg Center
04:42PM 50.3333 -97.0500 206° Southwest 270 311 9,000 -1,200 Descending Winnipeg Center
04:43PM 50.2667 -97.0667 189° South 260 299 7,600 -1,560 Descending Winnipeg Center
04:44PM 50.2000 -97.1000 198° South 240 276 5,900 -1,500 Descending Winnipeg Center
04:45PM 50.1333 -97.1167 189° South 220 253 4,700 -1,080 Descending Winnipeg Center
04:46PM 50.0833 -97.1500 203° Southwest 190 219 3,800 -780 Descending Winnipeg Center
04:47PM 50.0500 -97.1667 198° South 160 184 3,200 -660 Descending Winnipeg Center
04:48PM 50.0167 -97.2000 213° Southwest 150 173 2,500 -600 Descending Winnipeg Center
04:49PM 49.9667 -97.2000 180° South 130 150 2,000 -600 Descending Winnipeg Center
04:50PM 49.9333 -97.2333 213° Southwest 120 138 1,400 -540 Descending Winnipeg Center
04:51PM 49.9167 -97.2333 180° South 110 127 1,000 -360 Descending Winnipeg Center
04:52PM 49.8833 -97.2333 180° South 40 46 700 -300 Descending Winnipeg Center